createdAt,value
2022-08-20T00:01:48.158Z,19.46
2022-08-20T00:04:16.939Z,19.44
2022-08-20T00:06:45.382Z,19.42
2022-08-20T00:09:13.389Z,19.45
2022-08-20T00:11:42.710Z,19.48
2022-08-20T00:14:10.829Z,19.47
2022-08-20T00:16:39.029Z,19.46
2022-08-20T00:19:09.405Z,19.47
2022-08-20T00:21:38.112Z,19.45
2022-08-20T00:24:06.509Z,19.39
2022-08-20T00:26:34.558Z,19.39
2022-08-20T00:29:06.166Z,19.42
2022-08-20T00:31:34.173Z,19.42
2022-08-20T00:34:02.332Z,19.41
2022-08-20T00:36:33.008Z,19.38
2022-08-20T00:39:01.965Z,19.11
2022-08-20T00:41:31.015Z,18.96
2022-08-20T00:44:10.636Z,18.92
2022-08-20T00:46:39.691Z,18.97
2022-08-20T00:49:09.869Z,19.12
2022-08-20T00:51:43.511Z,19.20
2022-08-20T00:54:17.236Z,19.22
2022-08-20T00:56:52.689Z,19.22
2022-08-20T00:59:26.755Z,19.17
2022-08-20T01:01:56.573Z,19.17
2022-08-20T01:04:26.852Z,19.17
2022-08-20T01:06:55.032Z,19.16
2022-08-20T01:09:50.158Z,19.13
2022-08-20T01:12:11.691Z,19.14
2022-08-20T01:14:45.938Z,19.15
2022-08-20T01:17:18.641Z,19.16
2022-08-20T01:19:52.686Z,19.17
2022-08-20T01:22:46.210Z,19.18
2022-08-20T01:25:20.528Z,19.14
2022-08-20T01:27:55.130Z,19.01
2022-08-20T01:30:24.734Z,18.94
2022-08-20T01:32:52.680Z,18.98
2022-08-20T01:35:22.610Z,19.03
2022-08-20T01:37:50.637Z,19.02
2022-08-20T01:40:29.008Z,18.99
2022-08-20T01:42:59.489Z,19.00
2022-08-20T01:45:30.309Z,19.00
2022-08-20T01:47:59.140Z,19.02
2022-08-20T01:50:29.885Z,19.06
2022-08-20T01:53:04.539Z,19.06
2022-08-20T01:55:32.831Z,19.07
2022-08-20T01:58:02.650Z,19.12
2022-08-20T02:00:32.594Z,19.12
2022-08-20T02:03:00.627Z,19.15
2022-08-20T02:05:30.512Z,19.15
2022-08-20T02:07:58.871Z,19.16
2022-08-20T02:10:27.110Z,19.17
2022-08-20T02:13:00.275Z,19.19
2022-08-20T02:15:34.559Z,18.73
2022-08-20T02:18:08.212Z,18.42
2022-08-20T02:20:37.460Z,18.27
2022-08-20T02:23:07.249Z,18.35
2022-08-20T02:25:37.687Z,18.52
2022-08-20T02:28:09.160Z,18.70
2022-08-20T02:30:41.934Z,18.85
2022-08-20T02:33:13.145Z,18.95
2022-08-20T02:35:42.736Z,19.01
2022-08-20T02:38:10.905Z,19.04
2022-08-20T02:40:40.072Z,19.05
2022-08-20T02:43:08.044Z,19.05
2022-08-20T02:45:40.267Z,19.01
2022-08-20T02:48:09.606Z,19.02
2022-08-20T02:50:37.546Z,19.04
2022-08-20T02:53:05.527Z,19.01
2022-08-20T02:55:33.485Z,19.02
2022-08-20T02:58:01.920Z,19.07
2022-08-20T03:00:38.478Z,19.09
2022-08-20T03:03:08.233Z,19.10
2022-08-20T03:05:39.433Z,19.09
2022-08-20T03:08:09.545Z,19.13
2022-08-20T03:10:39.101Z,19.14
2022-08-20T03:13:12.298Z,19.11
2022-08-20T03:15:42.513Z,18.85
2022-08-20T03:18:11.263Z,18.63
2022-08-20T03:20:40.749Z,18.56
2022-08-20T03:23:09.035Z,18.68
2022-08-20T03:25:37.381Z,18.84
2022-08-20T03:28:05.808Z,18.94
2022-08-20T03:30:34.152Z,18.96
2022-08-20T03:33:02.518Z,19.00
2022-08-20T03:35:31.790Z,18.96
2022-08-20T03:38:01.556Z,18.84
2022-08-20T03:40:33.448Z,18.83
2022-08-20T03:43:02.347Z,18.85
2022-08-20T03:45:32.602Z,18.91
2022-08-20T03:48:01.724Z,18.91
2022-08-20T03:50:32.273Z,18.86
2022-08-20T03:53:02.558Z,18.70
2022-08-20T03:55:32.312Z,18.70
2022-08-20T03:58:03.143Z,18.80
2022-08-20T04:00:34.300Z,18.87
2022-08-20T04:03:03.688Z,18.97
2022-08-20T04:05:33.556Z,19.01
2022-08-20T04:08:04.241Z,19.03
2022-08-20T04:10:32.411Z,19.02
2022-08-20T04:13:00.541Z,19.04
2022-08-20T04:15:29.651Z,19.06
2022-08-20T04:17:59.788Z,19.07
2022-08-20T04:20:28.897Z,19.09
2022-08-20T04:22:59.297Z,19.09
2022-08-20T04:25:35.884Z,19.09
2022-08-20T04:28:08.271Z,19.05
2022-08-20T04:30:36.789Z,19.01
2022-08-20T04:33:05.104Z,18.99
2022-08-20T04:35:33.163Z,19.01
2022-08-20T04:38:03.635Z,19.02
2022-08-20T04:40:50.628Z,19.02
2022-08-20T04:43:19.776Z,18.87
2022-08-20T04:45:48.507Z,18.67
2022-08-20T04:48:16.595Z,18.65
2022-08-20T04:50:47.076Z,18.72
2022-08-20T04:53:20.684Z,18.81
2022-08-20T04:55:54.553Z,18.79
2022-08-20T04:58:24.695Z,18.79
2022-08-20T05:00:55.386Z,18.65
2022-08-20T05:03:25.060Z,18.63
2022-08-20T05:05:53.620Z,18.74
2022-08-20T05:08:23.088Z,18.81
2022-08-20T05:11:06.746Z,18.84
2022-08-20T05:13:42.861Z,18.88
2022-08-20T05:16:11.370Z,18.94
2022-08-20T05:18:39.347Z,18.98
2022-08-20T05:21:07.609Z,18.94
2022-08-20T05:23:42.919Z,18.95
2022-08-20T05:26:13.169Z,18.90
2022-08-20T05:28:54.162Z,18.93
2022-08-20T05:31:30.877Z,18.99
2022-08-20T05:34:01.827Z,19.02
2022-08-20T05:36:30.140Z,19.01
2022-08-20T05:38:58.189Z,19.03
2022-08-20T05:41:30.258Z,19.05
2022-08-20T05:44:01.108Z,19.06
2022-08-20T05:46:29.573Z,19.09
2022-08-20T05:48:59.584Z,19.11
2022-08-20T05:51:28.359Z,19.14
2022-08-20T05:53:58.023Z,19.10
2022-08-20T05:56:31.244Z,19.14
2022-08-20T05:59:02.587Z,19.19
2022-08-20T06:01:31.510Z,19.25
2022-08-20T06:04:17.682Z,19.27
2022-08-20T06:06:47.262Z,19.30
2022-08-20T06:09:30.596Z,19.34
2022-08-20T06:12:02.373Z,19.38
2022-08-20T06:14:31.013Z,19.41
2022-08-20T06:17:04.880Z,19.46
2022-08-20T06:19:34.141Z,19.46
2022-08-20T06:22:08.629Z,19.50
2022-08-20T06:24:48.239Z,19.53
2022-08-20T06:27:18.021Z,19.54
2022-08-20T06:29:46.373Z,19.52
2022-08-20T06:32:15.680Z,19.47
2022-08-20T06:34:49.851Z,19.46
2022-08-20T06:37:21.609Z,19.48
2022-08-20T06:39:49.648Z,19.50
2022-08-20T06:42:20.674Z,19.55
2022-08-20T06:44:49.571Z,19.58
2022-08-20T06:47:18.639Z,19.60
2022-08-20T06:49:47.587Z,19.59
2022-08-20T06:52:17.137Z,19.63
2022-08-20T06:54:45.348Z,19.67
2022-08-20T06:57:13.927Z,19.64
2022-08-20T06:59:43.301Z,19.73
2022-08-20T07:02:11.409Z,19.80
2022-08-20T07:04:39.386Z,19.87
2022-08-20T07:07:07.474Z,19.88
2022-08-20T07:09:35.503Z,19.86
2022-08-20T07:12:03.777Z,19.92
2022-08-20T07:14:31.787Z,19.92
2022-08-20T07:17:03.568Z,19.86
2022-08-20T07:19:31.769Z,19.84
2022-08-20T07:21:59.937Z,19.86
2022-08-20T07:24:33.312Z,19.85
2022-08-20T07:27:22.343Z,19.83
2022-08-20T07:30:12.729Z,19.83
2022-08-20T07:32:45.432Z,19.85
2022-08-20T07:35:17.444Z,19.87
2022-08-20T07:37:48.380Z,19.88
2022-08-20T07:40:25.741Z,19.87
2022-08-20T07:42:55.147Z,19.90
2022-08-20T07:45:24.442Z,19.94
2022-08-20T07:47:54.282Z,19.93
2022-08-20T07:50:25.037Z,19.95
2022-08-20T07:52:53.904Z,19.87
2022-08-20T07:55:22.986Z,19.65
2022-08-20T07:57:51.932Z,19.42
2022-08-20T08:00:22.128Z,19.29
2022-08-20T08:02:50.228Z,19.02
2022-08-20T08:05:19.875Z,19.01
2022-08-20T08:07:47.978Z,19.10
2022-08-20T08:10:19.723Z,19.19
2022-08-20T08:12:52.071Z,19.28
2022-08-20T08:15:25.483Z,19.40
2022-08-20T08:17:55.742Z,19.54
2022-08-20T08:20:25.188Z,19.62
2022-08-20T08:22:53.806Z,19.69
2022-08-20T08:25:22.206Z,19.81
2022-08-20T08:27:50.367Z,19.86
2022-08-20T08:30:18.550Z,19.84
2022-08-20T08:33:04.206Z,19.85
2022-08-20T08:35:34.321Z,19.75
2022-08-20T08:38:02.791Z,19.82
2022-08-20T08:40:32.127Z,19.93
2022-08-20T08:43:04.121Z,19.95
2022-08-20T08:45:43.769Z,19.88
2022-08-20T08:48:18.268Z,19.96
2022-08-20T08:50:54.642Z,19.98
2022-08-20T08:53:27.717Z,19.72
2022-08-20T08:55:55.922Z,19.47
2022-08-20T08:58:24.171Z,19.43
2022-08-20T09:00:56.083Z,19.45
2022-08-20T09:03:29.399Z,19.30
2022-08-20T09:06:06.327Z,19.30
2022-08-20T09:08:44.937Z,19.53
2022-08-20T09:11:12.923Z,19.64
2022-08-20T09:13:40.872Z,19.72
2022-08-20T09:16:08.838Z,19.95
2022-08-20T09:18:36.898Z,20.09
2022-08-20T09:21:07.032Z,20.41
2022-08-20T09:23:35.781Z,20.51
2022-08-20T09:26:03.717Z,20.60
2022-08-20T09:28:32.454Z,20.67
2022-08-20T09:31:03.382Z,20.73
2022-08-20T09:33:32.714Z,20.73
2022-08-20T09:36:00.821Z,20.76
2022-08-20T09:38:30.159Z,21.13
2022-08-20T09:40:58.192Z,21.57
2022-08-20T09:43:26.482Z,21.67
2022-08-20T09:45:54.405Z,21.59
2022-08-20T09:48:31.995Z,21.66
2022-08-20T09:51:00.415Z,21.58
2022-08-20T09:53:30.984Z,21.43
2022-08-20T09:56:00.179Z,21.28
2022-08-20T09:58:35.790Z,21.12
2022-08-20T10:01:13.870Z,20.96
2022-08-20T10:03:42.625Z,20.85
2022-08-20T10:06:11.436Z,20.52
2022-08-20T10:08:40.926Z,20.35
2022-08-20T10:11:08.877Z,20.31
2022-08-20T10:13:36.861Z,20.32
2022-08-20T10:16:05.690Z,20.38
2022-08-20T10:18:33.792Z,20.53
2022-08-20T10:21:01.715Z,20.61
2022-08-20T10:23:29.815Z,20.60
2022-08-20T10:25:59.226Z,20.77
2022-08-20T10:28:27.174Z,20.95
2022-08-20T10:30:55.103Z,21.11
2022-08-20T10:33:23.124Z,21.27
2022-08-20T10:35:51.069Z,21.44
2022-08-20T10:38:22.741Z,21.52
2022-08-20T10:40:52.158Z,21.57
2022-08-20T10:43:22.046Z,21.61
2022-08-20T10:45:50.066Z,21.56
2022-08-20T10:48:21.408Z,21.60
2022-08-20T10:50:49.980Z,21.71
2022-08-20T10:53:18.013Z,21.69
2022-08-20T10:55:46.429Z,21.78
2022-08-20T10:58:14.622Z,21.85
2022-08-20T11:00:45.780Z,21.85
2022-08-20T11:03:13.757Z,21.78
2022-08-20T11:05:41.781Z,21.90
2022-08-20T11:08:09.884Z,21.99
2022-08-20T11:10:38.916Z,21.79
2022-08-20T11:13:08.649Z,21.58
2022-08-20T11:15:39.659Z,21.59
2022-08-20T11:18:10.560Z,21.69
2022-08-20T11:20:38.584Z,21.88
2022-08-20T11:23:06.774Z,22.06
2022-08-20T11:25:34.788Z,22.09
2022-08-20T11:28:03.493Z,21.75
2022-08-20T11:30:34.285Z,21.67
2022-08-20T11:33:03.752Z,21.90
2022-08-20T11:35:48.576Z,22.05
2022-08-20T11:38:18.040Z,22.07
2022-08-20T11:40:46.670Z,22.09
2022-08-20T11:43:16.274Z,22.15
2022-08-20T11:45:45.500Z,22.13
2022-08-20T11:48:13.514Z,22.34
2022-08-20T11:50:43.029Z,22.59
2022-08-20T11:53:11.169Z,22.70
2022-08-20T11:55:39.560Z,22.67
2022-08-20T11:58:08.236Z,22.82
2022-08-20T12:00:36.896Z,23.01
2022-08-20T12:03:08.727Z,23.15
2022-08-20T12:05:37.674Z,23.24
2022-08-20T12:08:08.403Z,23.11
2022-08-20T12:10:37.076Z,23.06
2022-08-20T12:13:05.295Z,23.22
2022-08-20T12:15:33.397Z,23.29
2022-08-20T12:18:01.636Z,23.29
2022-08-20T12:20:29.588Z,23.33
2022-08-20T12:22:58.951Z,23.35
2022-08-20T12:25:28.772Z,23.29
2022-08-20T12:27:56.821Z,23.39
2022-08-20T12:30:25.609Z,23.51
2022-08-20T12:32:53.608Z,23.73
2022-08-20T12:35:21.847Z,23.85
2022-08-20T12:37:50.005Z,23.86
2022-08-20T12:40:24.458Z,23.78
2022-08-20T12:43:00.855Z,23.33
2022-08-20T12:45:28.819Z,23.11
2022-08-20T12:48:03.231Z,23.19
2022-08-20T12:50:32.137Z,23.47
2022-08-20T12:53:00.499Z,23.71
2022-08-20T12:55:29.726Z,23.83
2022-08-20T12:58:00.347Z,23.67
2022-08-20T13:00:32.800Z,23.41
2022-08-20T13:03:03.828Z,23.36
2022-08-20T13:05:33.084Z,23.44
2022-08-20T13:08:01.325Z,23.53
2022-08-20T13:10:31.325Z,23.59
2022-08-20T13:13:01.888Z,23.60
2022-08-20T13:15:32.823Z,23.63
2022-08-20T13:18:04.672Z,23.47
2022-08-20T13:20:34.415Z,23.30
2022-08-20T13:23:03.881Z,23.21
2022-08-20T13:25:32.273Z,23.11
2022-08-20T13:28:02.317Z,23.19
2022-08-20T13:30:32.904Z,23.48
2022-08-20T13:33:00.866Z,23.48
2022-08-20T13:35:28.864Z,23.50
2022-08-20T13:37:57.006Z,23.40
2022-08-20T13:40:25.929Z,23.40
2022-08-20T13:42:53.943Z,23.39
2022-08-20T13:45:22.000Z,23.44
2022-08-20T13:47:54.081Z,23.46
2022-08-20T13:50:25.258Z,23.46
2022-08-20T13:52:53.553Z,23.58
2022-08-20T13:55:23.403Z,23.66
2022-08-20T13:57:52.378Z,23.65
2022-08-20T14:00:26.416Z,23.69
2022-08-20T14:03:02.380Z,23.65
2022-08-20T14:05:31.711Z,23.89
2022-08-20T14:08:07.961Z,24.01
2022-08-20T14:10:36.565Z,24.07
2022-08-20T14:13:06.770Z,24.23
2022-08-20T14:15:35.566Z,24.24
2022-08-20T14:18:05.466Z,24.27
2022-08-20T14:20:35.466Z,24.29
2022-08-20T14:23:06.999Z,24.53
2022-08-20T14:25:35.514Z,25.05
2022-08-20T14:28:11.708Z,25.05
2022-08-20T14:30:39.996Z,25.08
2022-08-20T14:33:09.483Z,25.09
2022-08-20T14:35:37.566Z,25.63
2022-08-20T14:38:06.035Z,25.87
2022-08-20T14:40:34.633Z,26.08
2022-08-20T14:43:03.387Z,25.91
2022-08-20T14:45:31.363Z,26.21
2022-08-20T14:48:00.245Z,26.42
2022-08-20T14:50:32.166Z,26.28
2022-08-20T14:53:00.885Z,26.21
2022-08-20T14:55:31.175Z,26.17
2022-08-20T14:57:59.604Z,26.04
2022-08-20T15:00:30.773Z,26.10
2022-08-20T15:02:59.108Z,25.82
2022-08-20T15:05:27.717Z,25.64
2022-08-20T15:07:59.590Z,25.67
2022-08-20T15:10:30.233Z,25.90
2022-08-20T15:12:58.719Z,25.96
2022-08-20T15:15:27.286Z,25.81
2022-08-20T15:17:57.668Z,25.71
2022-08-20T15:20:28.598Z,25.34
2022-08-20T15:22:56.902Z,25.16
2022-08-20T15:25:36.770Z,25.03
2022-08-20T15:28:08.229Z,24.99
2022-08-20T15:30:37.564Z,24.94
2022-08-20T15:33:05.635Z,25.21
2022-08-20T15:35:33.730Z,25.57
2022-08-20T15:38:01.777Z,25.69
2022-08-20T15:40:33.220Z,26.06
2022-08-20T15:43:03.625Z,25.97
2022-08-20T15:45:32.092Z,26.27
2022-08-20T15:48:09.167Z,26.40
2022-08-20T15:51:03.051Z,26.29
2022-08-20T15:53:38.214Z,26.10
2022-08-20T15:56:16.493Z,26.16
2022-08-20T15:58:55.043Z,26.03
2022-08-20T16:01:33.657Z,25.65
2022-08-20T16:04:21.815Z,25.70
2022-08-20T16:06:52.977Z,25.94
2022-08-20T16:09:39.293Z,25.96
2022-08-20T16:12:12.164Z,25.60
2022-08-20T16:14:42.216Z,25.82
2022-08-20T16:17:13.217Z,25.91
2022-08-20T16:19:49.784Z,25.86
2022-08-20T16:22:19.482Z,26.00
2022-08-20T16:24:47.823Z,26.41
2022-08-20T16:27:28.399Z,26.64
2022-08-20T16:30:04.163Z,26.70
2022-08-20T16:32:41.270Z,26.80
2022-08-20T16:35:29.657Z,26.99
2022-08-20T16:38:05.025Z,27.21
2022-08-20T16:40:36.728Z,27.28
2022-08-20T16:43:08.292Z,27.42
2022-08-20T16:45:43.466Z,27.50
2022-08-20T16:48:13.869Z,27.68
2022-08-20T16:50:59.003Z,27.86
2022-08-20T16:53:28.402Z,27.74
2022-08-20T16:55:58.584Z,27.30
2022-08-20T16:58:27.896Z,27.28
2022-08-20T17:01:08.747Z,27.13
2022-08-20T17:03:40.670Z,27.31
2022-08-20T17:06:18.694Z,27.67
2022-08-20T17:08:51.211Z,28.04
2022-08-20T17:11:26.211Z,28.21
2022-08-20T17:14:07.499Z,28.32
2022-08-20T17:16:38.555Z,28.21
2022-08-20T17:19:18.550Z,27.76
2022-08-20T17:21:50.171Z,27.49
2022-08-20T17:24:23.847Z,27.30
2022-08-20T17:26:59.458Z,27.55
2022-08-20T17:29:31.815Z,27.71
2022-08-20T17:32:02.329Z,27.48
2022-08-20T17:34:32.713Z,27.54
2022-08-20T17:37:05.704Z,27.68
2022-08-20T17:39:34.108Z,28.02
2022-08-20T17:42:08.859Z,27.90
2022-08-20T17:44:46.451Z,27.74
2022-08-20T17:47:17.611Z,27.42
2022-08-20T17:49:54.978Z,27.47
2022-08-20T17:52:35.795Z,27.56
2022-08-20T17:55:04.571Z,27.75
2022-08-20T17:57:38.416Z,27.64
2022-08-20T18:00:14.170Z,27.70
2022-08-20T18:02:42.492Z,27.78
2022-08-20T18:05:15.531Z,27.50
2022-08-20T18:07:54.172Z,27.15
2022-08-20T18:10:25.816Z,26.93
2022-08-20T18:13:17.925Z,26.45
2022-08-20T18:15:51.904Z,26.39
2022-08-20T18:18:29.370Z,26.30
2022-08-20T18:21:15.861Z,26.00
2022-08-20T18:23:48.596Z,25.68
2022-08-20T18:26:22.363Z,25.52
2022-08-20T18:28:54.297Z,25.21
2022-08-20T18:31:32.397Z,24.83
2022-08-20T18:34:11.235Z,24.55
2022-08-20T18:36:39.216Z,24.49
2022-08-20T18:39:09.687Z,24.29
2022-08-20T18:41:39.845Z,24.27
2022-08-20T18:44:10.760Z,24.15
2022-08-20T18:46:52.827Z,24.13
2022-08-20T18:49:30.241Z,24.04
2022-08-20T18:51:59.380Z,23.94
2022-08-20T18:54:30.772Z,23.93
2022-08-20T18:57:08.486Z,23.81
2022-08-20T18:59:43.890Z,23.75
2022-08-20T19:02:22.652Z,23.63
2022-08-20T19:05:02.018Z,23.57
2022-08-20T19:07:47.911Z,23.53
2022-08-20T19:10:40.809Z,23.42
2022-08-20T19:13:20.573Z,23.26
2022-08-20T19:15:51.780Z,23.26
2022-08-20T19:18:28.346Z,23.23
2022-08-20T19:20:58.802Z,23.21
2022-08-20T19:23:30.147Z,23.15
2022-08-20T19:26:00.891Z,23.09
2022-08-20T19:28:32.231Z,23.12
2022-08-20T19:31:11.043Z,23.05
2022-08-20T19:33:44.018Z,23.04
2022-08-20T19:36:16.312Z,23.02
2022-08-20T19:38:49.940Z,23.03
2022-08-20T19:41:30.887Z,22.92
2022-08-20T19:43:59.803Z,22.90
2022-08-20T19:46:32.284Z,22.89
2022-08-20T19:49:20.639Z,22.83
2022-08-20T19:51:58.425Z,22.78
2022-08-20T19:54:29.463Z,22.71
2022-08-20T19:56:58.783Z,22.64
2022-08-20T19:59:27.123Z,22.64
2022-08-20T20:02:00.341Z,22.51
2022-08-20T20:04:37.338Z,22.52
2022-08-20T20:07:09.811Z,22.42
2022-08-20T20:09:42.460Z,22.42
2022-08-20T20:12:22.848Z,22.42
2022-08-20T20:14:52.644Z,22.41
2022-08-20T20:17:23.693Z,22.39
2022-08-20T20:19:59.171Z,22.23
2022-08-20T20:22:29.621Z,22.31
2022-08-20T20:25:06.209Z,22.24
2022-08-20T20:27:36.538Z,22.32
2022-08-20T20:30:13.449Z,22.34
2022-08-20T20:32:45.350Z,22.34
2022-08-20T20:35:26.655Z,22.29
2022-08-20T20:38:00.451Z,22.31
2022-08-20T20:40:33.956Z,22.28
2022-08-20T20:43:06.981Z,22.19
2022-08-20T20:45:36.679Z,22.12
2022-08-20T20:48:18.102Z,22.06
2022-08-20T20:50:48.519Z,22.06
2022-08-20T20:53:47.430Z,22.10
2022-08-20T20:56:27.929Z,22.05
2022-08-20T20:58:56.394Z,22.10
2022-08-20T21:01:45.693Z,22.01
2022-08-20T21:04:12.655Z,22.06
2022-08-20T21:06:42.007Z,22.02
2022-08-20T21:09:10.230Z,22.00
2022-08-20T21:11:38.324Z,21.96
2022-08-20T21:14:06.331Z,21.88
2022-08-20T21:16:34.287Z,21.76
2022-08-20T21:19:03.271Z,21.70
2022-08-20T21:21:31.256Z,21.63
2022-08-20T21:24:00.559Z,21.53
2022-08-20T21:26:29.583Z,21.57
2022-08-20T21:28:57.623Z,21.55
2022-08-20T21:31:31.513Z,21.50
2022-08-20T21:33:59.523Z,21.52
2022-08-20T21:36:27.708Z,21.44
2022-08-20T21:38:55.809Z,21.55
2022-08-20T21:41:29.890Z,21.60
2022-08-20T21:43:58.641Z,21.58
2022-08-20T21:46:28.750Z,21.53
2022-08-20T21:48:57.429Z,21.52
2022-08-20T21:51:25.425Z,21.57
2022-08-20T21:53:53.485Z,21.59
2022-08-20T21:56:22.571Z,21.58
2022-08-20T21:58:53.157Z,21.46
2022-08-20T22:01:24.013Z,21.27
2022-08-20T22:03:52.174Z,21.15
2022-08-20T22:06:20.838Z,20.80
2022-08-20T22:08:48.852Z,20.64
2022-08-20T22:11:17.513Z,20.68
2022-08-20T22:13:46.633Z,20.74
2022-08-20T22:16:18.597Z,20.83
2022-08-20T22:18:47.166Z,20.89
2022-08-20T22:21:19.548Z,20.94
2022-08-20T22:23:48.028Z,20.92
2022-08-20T22:26:17.265Z,20.83
2022-08-20T22:28:45.628Z,20.77
2022-08-20T22:31:24.232Z,20.69
2022-08-20T22:33:52.309Z,20.67
2022-08-20T22:36:20.362Z,20.66
2022-08-20T22:38:54.457Z,20.62
2022-08-20T22:41:23.146Z,20.55
2022-08-20T22:43:56.533Z,20.52
2022-08-20T22:46:28.583Z,20.52
2022-08-20T22:48:57.687Z,20.55
2022-08-20T22:51:30.242Z,20.59
2022-08-20T22:53:58.825Z,20.59
2022-08-20T22:56:27.145Z,20.50
2022-08-20T22:58:59.409Z,20.37
2022-08-20T23:01:29.875Z,20.38
2022-08-20T23:04:03.408Z,20.37
2022-08-20T23:06:31.962Z,20.39
2022-08-20T23:09:00.213Z,20.40
2022-08-20T23:11:28.197Z,20.35
2022-08-20T23:13:57.013Z,20.34
2022-08-20T23:16:25.526Z,20.30
2022-08-20T23:18:55.343Z,20.27
2022-08-20T23:21:23.397Z,20.28
2022-08-20T23:23:51.472Z,20.26
2022-08-20T23:26:22.714Z,20.23
2022-08-20T23:28:50.764Z,20.17
2022-08-20T23:31:18.989Z,20.13
2022-08-20T23:33:47.070Z,20.14
2022-08-20T23:36:19.567Z,20.18
2022-08-20T23:38:47.607Z,20.17
2022-08-20T23:41:15.653Z,20.16
2022-08-20T23:43:44.120Z,20.09
2022-08-20T23:46:12.733Z,20.10
2022-08-20T23:48:40.886Z,20.12
2022-08-20T23:51:08.878Z,20.06
2022-08-20T23:53:38.781Z,20.03
2022-08-20T23:56:07.093Z,20.07
2022-08-20T23:58:35.120Z,20.07
